createdAt,value
2018-05-21T00:01:00.404Z,0
2018-05-21T00:02:08.459Z,0
2018-05-21T00:03:16.531Z,0
2018-05-21T00:04:24.605Z,0
2018-05-21T00:05:32.669Z,0
2018-05-21T00:06:40.733Z,0
2018-05-21T00:07:48.787Z,0
2018-05-21T00:08:56.858Z,0
2018-05-21T00:10:04.913Z,0
2018-05-21T00:11:12.986Z,0
2018-05-21T00:12:21.051Z,0
2018-05-21T00:13:29.123Z,0
2018-05-21T00:14:37.169Z,0
2018-05-21T00:15:45.236Z,0
2018-05-21T00:16:53.306Z,0
2018-05-21T00:18:01.367Z,0
2018-05-21T00:19:09.411Z,0
2018-05-21T00:20:17.504Z,0
2018-05-21T00:21:25.569Z,0
2018-05-21T00:22:33.616Z,0
2018-05-21T00:23:41.686Z,0
2018-05-21T00:24:49.726Z,0
2018-05-21T00:25:57.834Z,0
2018-05-21T00:27:05.923Z,0
2018-05-21T00:28:13.947Z,0
2018-05-21T00:29:22.004Z,0
2018-05-21T00:30:30.047Z,0
2018-05-21T00:31:38.135Z,0
2018-05-21T00:32:46.203Z,0
2018-05-21T00:33:54.257Z,0
2018-05-21T00:35:02.322Z,0
2018-05-21T00:36:10.400Z,0
2018-05-21T00:37:18.467Z,0
2018-05-21T00:38:26.517Z,0
2018-05-21T00:39:34.584Z,0
2018-05-21T00:40:42.650Z,0
2018-05-21T00:41:50.722Z,0
2018-05-21T00:42:58.783Z,0
2018-05-21T00:44:06.841Z,0
2018-05-21T00:45:14.941Z,0
2018-05-21T00:46:22.981Z,0
2018-05-21T00:47:31.043Z,0
2018-05-21T00:48:39.103Z,0
2018-05-21T00:49:47.176Z,0
2018-05-21T00:50:55.232Z,0
2018-05-21T00:52:03.409Z,0
2018-05-21T00:53:11.358Z,0
2018-05-21T00:54:19.405Z,0
2018-05-21T00:55:27.489Z,0
2018-05-21T00:56:35.550Z,0
2018-05-21T00:57:43.617Z,0
2018-05-21T00:58:51.687Z,0
2018-05-21T00:59:59.717Z,0
2018-05-21T01:01:07.803Z,0
2018-05-21T01:02:15.879Z,0
2018-05-21T01:03:23.945Z,0
2018-05-21T01:04:32.003Z,0
2018-05-21T01:05:40.037Z,0
2018-05-21T01:06:48.141Z,0
2018-05-21T01:07:56.191Z,0
2018-05-21T01:09:04.246Z,0
2018-05-21T01:10:12.315Z,0
2018-05-21T01:11:20.376Z,0
2018-05-21T01:12:28.439Z,0
2018-05-21T01:13:36.574Z,0
2018-05-21T01:14:44.578Z,0
2018-05-21T01:15:52.634Z,0
2018-05-21T01:17:00.695Z,0
2018-05-21T01:18:08.780Z,0
2018-05-21T01:19:16.841Z,0
2018-05-21T01:20:24.880Z,0
2018-05-21T01:21:32.973Z,0
2018-05-21T01:22:41.025Z,0
2018-05-21T01:23:49.073Z,0
2018-05-21T01:24:57.157Z,0
2018-05-21T01:26:05.215Z,0
2018-05-21T01:27:13.274Z,0
2018-05-21T01:28:21.339Z,0
2018-05-21T01:29:29.382Z,0
2018-05-21T01:30:37.465Z,0
2018-05-21T01:31:45.539Z,0
2018-05-21T01:32:53.585Z,0
2018-05-21T01:34:01.651Z,0
2018-05-21T01:35:09.690Z,0
2018-05-21T01:36:17.784Z,0
2018-05-21T01:37:25.849Z,0
2018-05-21T01:38:33.917Z,0
2018-05-21T01:39:41.973Z,0
2018-05-21T01:40:50.008Z,0
2018-05-21T01:41:58.097Z,0
2018-05-21T01:43:06.169Z,0
2018-05-21T01:44:14.232Z,0
2018-05-21T01:45:22.304Z,0
2018-05-21T01:46:30.345Z,0
2018-05-21T01:47:38.418Z,0
2018-05-21T01:48:46.512Z,0
2018-05-21T01:49:54.562Z,0
2018-05-21T01:51:02.623Z,0
2018-05-21T01:52:10.687Z,0
2018-05-21T01:53:18.749Z,0
2018-05-21T01:54:26.830Z,0
2018-05-21T01:55:34.879Z,0
2018-05-21T01:56:42.938Z,0
2018-05-21T01:57:50.976Z,0
2018-05-21T01:58:59.071Z,0
2018-05-21T02:00:07.139Z,0
2018-05-21T02:01:15.204Z,0
2018-05-21T02:02:23.269Z,0
2018-05-21T02:03:31.331Z,0
2018-05-21T02:04:39.387Z,0
2018-05-21T02:05:47.453Z,0
2018-05-21T02:06:55.525Z,0
2018-05-21T02:08:03.590Z,0
2018-05-21T02:09:11.646Z,0
2018-05-21T02:10:19.687Z,0
2018-05-21T02:11:27.786Z,0
2018-05-21T02:12:35.840Z,0
2018-05-21T02:13:43.902Z,0
2018-05-21T02:14:51.973Z,0
2018-05-21T02:15:59.996Z,0
2018-05-21T02:17:08.093Z,0
2018-05-21T02:18:16.161Z,0
2018-05-21T02:19:24.223Z,0
2018-05-21T02:20:32.286Z,0
2018-05-21T02:21:40.336Z,0
2018-05-21T02:22:48.411Z,0
2018-05-21T02:23:56.471Z,0
2018-05-21T02:25:04.548Z,0
2018-05-21T02:26:12.614Z,0
2018-05-21T02:27:20.660Z,0
2018-05-21T02:28:28.724Z,0
2018-05-21T02:29:36.807Z,0
2018-05-21T02:30:44.852Z,0
2018-05-21T02:31:52.921Z,0
2018-05-21T02:33:00.990Z,0
2018-05-21T02:34:09.053Z,0
2018-05-21T02:35:17.132Z,0
2018-05-21T02:36:25.173Z,0
2018-05-21T02:37:33.250Z,0
2018-05-21T02:38:41.325Z,0
2018-05-21T02:39:49.344Z,0
2018-05-21T02:40:57.436Z,0
2018-05-21T02:42:05.543Z,0
2018-05-21T02:43:13.562Z,0
2018-05-21T02:44:21.644Z,0
2018-05-21T02:45:29.650Z,0
2018-05-21T02:46:37.744Z,0
2018-05-21T02:47:45.801Z,0
2018-05-21T02:48:53.872Z,0
2018-05-21T02:50:01.939Z,0
2018-05-21T02:51:09.992Z,0
2018-05-21T02:52:18.057Z,0
2018-05-21T02:53:26.137Z,0
2018-05-21T02:54:34.223Z,0
2018-05-21T02:55:42.276Z,0
2018-05-21T02:56:50.319Z,0
2018-05-21T02:57:58.378Z,0
2018-05-21T02:59:06.451Z,0
2018-05-21T03:00:14.502Z,0
2018-05-21T03:01:22.562Z,0
2018-05-21T03:02:30.634Z,4
2018-05-21T03:03:38.691Z,4
2018-05-21T03:04:46.781Z,0
2018-05-21T03:05:54.830Z,0
2018-05-21T03:07:02.882Z,4
2018-05-21T03:08:10.955Z,0
2018-05-21T03:09:19.021Z,4
2018-05-21T03:10:27.084Z,4
2018-05-21T03:11:35.148Z,8
2018-05-21T03:12:43.225Z,8
2018-05-21T03:13:51.285Z,8
2018-05-21T03:14:59.313Z,12
2018-05-21T03:16:07.397Z,12
2018-05-21T03:17:15.467Z,16
2018-05-21T03:18:23.529Z,16
2018-05-21T03:19:31.602Z,20
2018-05-21T03:20:39.629Z,20
2018-05-21T03:21:47.718Z,28
2018-05-21T03:22:55.804Z,32
2018-05-21T03:24:03.851Z,36
2018-05-21T03:25:11.916Z,40
2018-05-21T03:26:19.949Z,48
2018-05-21T03:27:28.030Z,60
2018-05-21T03:28:36.102Z,64
2018-05-21T03:29:44.173Z,76
2018-05-21T03:30:52.243Z,88
2018-05-21T03:32:00.285Z,100
2018-05-21T03:33:08.353Z,116
2018-05-21T03:34:16.413Z,132
2018-05-21T03:35:24.494Z,152
2018-05-21T03:36:32.543Z,172
2018-05-21T03:37:40.615Z,196
2018-05-21T03:38:48.682Z,228
2018-05-21T03:39:56.745Z,268
2018-05-21T03:41:04.812Z,308
2018-05-21T03:42:12.869Z,352
2018-05-21T03:43:20.936Z,400
2018-05-21T03:44:29.011Z,448
2018-05-21T03:45:37.069Z,500
2018-05-21T03:46:45.140Z,564
2018-05-21T03:47:53.204Z,628
2018-05-21T03:49:01.257Z,696
2018-05-21T03:50:09.296Z,772
2018-05-21T03:51:17.393Z,844
2018-05-21T03:52:25.461Z,924
2018-05-21T03:53:33.509Z,996
2018-05-21T03:54:41.580Z,1064
2018-05-21T03:55:49.626Z,1132
2018-05-21T03:56:57.781Z,1200
2018-05-21T03:58:05.765Z,1272
2018-05-21T03:59:13.836Z,1348
2018-05-21T04:00:21.896Z,1420
2018-05-21T04:01:29.939Z,1492
2018-05-21T04:02:38.027Z,1568
2018-05-21T04:03:46.098Z,1632
2018-05-21T04:04:54.144Z,1700
2018-05-21T04:06:02.213Z,1772
2018-05-21T04:07:10.266Z,1836
2018-05-21T04:08:18.338Z,1908
2018-05-21T04:09:26.403Z,1968
2018-05-21T04:10:34.486Z,2028
2018-05-21T04:11:42.543Z,2084
2018-05-21T04:12:50.604Z,2136
2018-05-21T04:13:58.668Z,2188
2018-05-21T04:15:06.733Z,2236
2018-05-21T04:16:14.803Z,2288
2018-05-21T04:17:22.851Z,2340
2018-05-21T04:18:30.934Z,2392
2018-05-21T04:19:38.990Z,2440
2018-05-21T04:20:47.046Z,2488
2018-05-21T04:21:55.121Z,2536
2018-05-21T04:23:03.212Z,2600
2018-05-21T04:24:11.247Z,2660
2018-05-21T04:25:19.284Z,2732
2018-05-21T04:26:27.398Z,2804
2018-05-21T04:27:35.434Z,2884
2018-05-21T04:28:43.497Z,2988
2018-05-21T04:29:51.566Z,3116
2018-05-21T04:30:59.606Z,3272
2018-05-21T04:32:07.702Z,3456
2018-05-21T04:33:15.762Z,3664
2018-05-21T04:34:23.833Z,3872
2018-05-21T04:35:31.890Z,4076
2018-05-21T04:36:39.933Z,4264
2018-05-21T04:37:48.051Z,4440
2018-05-21T04:38:56.157Z,4588
2018-05-21T04:40:04.154Z,4712
2018-05-21T04:41:12.208Z,4796
2018-05-21T04:42:20.270Z,4836
2018-05-21T04:43:28.354Z,4848
2018-05-21T04:44:36.412Z,4868
2018-05-21T04:45:44.470Z,4864
2018-05-21T04:46:52.553Z,4872
2018-05-21T04:48:00.609Z,4856
2018-05-21T04:49:08.673Z,4844
2018-05-21T04:50:16.739Z,4856
2018-05-21T04:51:24.798Z,4856
2018-05-21T04:52:32.888Z,4840
2018-05-21T04:53:40.936Z,4824
2018-05-21T04:54:49.006Z,4784
2018-05-21T04:55:57.217Z,4768
2018-05-21T04:57:05.127Z,6564
2018-05-21T04:58:13.666Z,10260
2018-05-21T04:59:21.272Z,10404
2018-05-21T05:00:29.851Z,9324
2018-05-21T05:01:37.905Z,10768
2018-05-21T05:02:45.450Z,8944
2018-05-21T05:03:53.559Z,8184
2018-05-21T05:05:02.112Z,7316
2018-05-21T05:06:09.626Z,4820
2018-05-21T05:07:17.715Z,3688
2018-05-21T05:08:26.327Z,3628
2018-05-21T05:09:34.214Z,3616
2018-05-21T05:10:42.208Z,3636
2018-05-21T05:11:50.371Z,3804
2018-05-21T05:12:58.037Z,3840
2018-05-21T05:14:06.403Z,3824
2018-05-21T05:15:14.727Z,4040
2018-05-21T05:16:22.769Z,4128
2018-05-21T05:17:30.966Z,3984
2018-05-21T05:18:39.012Z,3916
2018-05-21T05:19:47.038Z,3864
2018-05-21T05:20:55.177Z,3932
2018-05-21T05:22:03.115Z,3972
2018-05-21T05:23:11.169Z,3920
2018-05-21T05:24:20.327Z,3920
2018-05-21T05:25:27.254Z,3916
2018-05-21T05:26:34.889Z,3904
2018-05-21T05:27:42.909Z,3896
2018-05-21T05:28:50.979Z,3876
2018-05-21T05:29:59.030Z,3836
2018-05-21T05:31:07.094Z,3784
2018-05-21T05:32:15.415Z,3764
2018-05-21T05:33:23.227Z,3784
2018-05-21T05:34:31.888Z,3812
2018-05-21T05:35:39.336Z,3872
2018-05-21T05:36:47.429Z,3920
2018-05-21T05:37:55.479Z,3948
2018-05-21T05:39:03.565Z,3980
2018-05-21T05:40:11.983Z,4004
2018-05-21T05:41:20.262Z,3996
2018-05-21T05:42:28.396Z,4008
2018-05-21T05:43:35.815Z,4028
2018-05-21T05:44:45.493Z,4464
2018-05-21T05:45:51.952Z,4004
2018-05-21T05:47:00.680Z,4028
2018-05-21T05:48:08.104Z,4028
2018-05-21T05:49:16.142Z,4004
2018-05-21T05:50:24.892Z,4020
2018-05-21T05:51:32.268Z,4052
2018-05-21T05:52:40.550Z,4076
2018-05-21T05:53:48.396Z,4100
2018-05-21T05:54:56.486Z,4116
2018-05-21T05:56:04.565Z,4140
2018-05-21T05:57:12.618Z,4168
2018-05-21T05:58:20.692Z,4192
2018-05-21T05:59:29.332Z,4208
2018-05-21T06:00:37.062Z,4220
2018-05-21T06:01:44.892Z,4228
2018-05-21T06:02:52.945Z,4232
2018-05-21T06:04:01.012Z,4244
2018-05-21T06:05:09.060Z,4268
2018-05-21T06:06:17.149Z,4292
2018-05-21T06:07:25.188Z,4316
2018-05-21T06:08:33.269Z,4332
2018-05-21T06:09:41.414Z,4316
2018-05-21T06:10:49.518Z,4284
2018-05-21T06:11:57.695Z,4292
2018-05-21T06:13:05.537Z,4312
2018-05-21T06:14:13.603Z,4324
2018-05-21T06:15:21.671Z,4328
2018-05-21T06:16:29.710Z,4340
2018-05-21T06:17:37.797Z,4380
2018-05-21T06:18:45.855Z,4412
2018-05-21T06:19:53.922Z,4424
2018-05-21T06:21:01.995Z,4440
2018-05-21T06:22:10.040Z,4460
2018-05-21T06:23:18.160Z,4476
2018-05-21T06:24:26.183Z,4504
2018-05-21T06:25:34.247Z,4524
2018-05-21T06:26:42.405Z,4560
2018-05-21T06:27:50.448Z,4596
2018-05-21T06:28:58.453Z,4632
2018-05-21T06:30:06.518Z,4652
2018-05-21T06:31:14.588Z,4672
2018-05-21T06:32:23.099Z,4692
2018-05-21T06:33:30.733Z,4700
2018-05-21T06:34:40.482Z,4736
2018-05-21T06:35:46.848Z,4752
2018-05-21T06:36:55.233Z,4808
2018-05-21T06:38:03.036Z,4956
2018-05-21T06:39:11.060Z,4976
2018-05-21T06:40:19.123Z,4984
2018-05-21T06:41:27.276Z,4996
2018-05-21T06:42:35.251Z,5000
2018-05-21T06:43:43.319Z,5020
2018-05-21T06:44:51.861Z,5044
2018-05-21T06:45:59.681Z,5360
2018-05-21T06:47:07.930Z,5412
2018-05-21T06:48:15.587Z,5188
2018-05-21T06:49:23.645Z,5244
2018-05-21T06:50:31.713Z,5296
2018-05-21T06:51:39.759Z,5360
2018-05-21T06:52:49.355Z,5444
2018-05-21T06:53:56.320Z,5512
2018-05-21T06:55:03.973Z,5536
2018-05-21T06:56:12.048Z,5552
2018-05-21T06:57:21.355Z,5704
2018-05-21T06:58:28.232Z,5660
2018-05-21T06:59:36.890Z,5628
2018-05-21T07:00:44.324Z,5684
2018-05-21T07:01:52.547Z,5752
2018-05-21T07:03:00.567Z,5872
2018-05-21T07:04:10.057Z,6448
2018-05-21T07:05:17.073Z,6300
2018-05-21T07:06:24.652Z,6632
2018-05-21T07:07:32.711Z,8724
2018-05-21T07:08:40.777Z,12136
2018-05-21T07:09:48.871Z,16768
2018-05-21T07:10:56.920Z,17344
2018-05-21T07:12:04.983Z,7196
2018-05-21T07:13:13.064Z,13260
2018-05-21T07:14:21.117Z,20832
2018-05-21T07:15:29.700Z,15488
2018-05-21T07:16:37.857Z,20160
2018-05-21T07:17:45.322Z,19200
2018-05-21T07:18:53.573Z,17856
2018-05-21T07:20:01.463Z,22272
2018-05-21T07:21:09.563Z,13264
2018-05-21T07:22:17.593Z,12040
2018-05-21T07:23:25.847Z,10952
2018-05-21T07:24:34.017Z,10248
2018-05-21T07:25:41.919Z,29024
2018-05-21T07:26:50.703Z,40320
2018-05-21T07:27:57.936Z,49696
2018-05-21T07:29:06.006Z,58432
2018-05-21T07:30:14.077Z,62048
2018-05-21T07:31:22.311Z,56704
2018-05-21T07:32:30.183Z,58400
2018-05-21T07:33:38.286Z,65312
2018-05-21T07:34:47.457Z,54432
2018-05-21T07:35:54.436Z,49184
2018-05-21T07:37:02.510Z,54304
2018-05-21T07:38:10.596Z,59488
2018-05-21T07:39:18.662Z,65536
2018-05-21T07:40:26.739Z,63840
2018-05-21T07:41:34.809Z,63680
2018-05-21T07:42:42.892Z,60736
2018-05-21T07:43:51.513Z,63264
2018-05-21T07:44:59.645Z,68416
2018-05-21T07:46:07.119Z,64992
2018-05-21T07:47:15.793Z,65792
2018-05-21T07:48:23.883Z,55552
2018-05-21T07:49:31.583Z,65504
2018-05-21T07:50:39.864Z,68896
2018-05-21T07:51:47.528Z,71040
2018-05-21T07:52:55.856Z,66048
2018-05-21T07:54:03.817Z,62752
2018-05-21T07:55:11.772Z,46816
2018-05-21T07:56:19.799Z,37696
2018-05-21T07:57:27.950Z,17536
2018-05-21T07:58:37.044Z,11716
2018-05-21T07:59:45.837Z,33312
2018-05-21T08:00:52.172Z,50304
2018-05-21T08:02:00.243Z,61920
2018-05-21T08:03:08.332Z,67744
2018-05-21T08:04:16.392Z,71968
2018-05-21T08:05:24.595Z,74720
2018-05-21T08:06:32.570Z,76576
2018-05-21T08:07:41.083Z,73248
2018-05-21T08:08:49.366Z,76256
2018-05-21T08:09:56.820Z,75936
2018-05-21T08:11:04.899Z,76992
2018-05-21T08:12:13.042Z,76320
2018-05-21T08:13:21.069Z,77440
2018-05-21T08:14:29.155Z,79328
2018-05-21T08:15:37.217Z,79744
2018-05-21T08:16:45.318Z,82272
2018-05-21T08:17:53.398Z,78240
2018-05-21T08:19:01.488Z,77504
2018-05-21T08:20:09.539Z,87680
2018-05-21T08:21:18.136Z,82304
2018-05-21T08:22:25.738Z,79200
2018-05-21T08:23:35.278Z,75488
2018-05-21T08:24:41.900Z,77856
2018-05-21T08:25:49.976Z,75232
2018-05-21T08:26:58.521Z,74912
2018-05-21T08:28:06.145Z,77248
2018-05-21T08:29:14.507Z,77472
2018-05-21T08:30:22.824Z,79296
2018-05-21T08:31:30.431Z,80576
2018-05-21T08:32:38.488Z,81600
2018-05-21T08:33:46.559Z,79904
2018-05-21T08:34:54.795Z,89792
2018-05-21T08:36:02.747Z,91488
2018-05-21T08:37:11.336Z,86592
2018-05-21T08:38:20.129Z,84224
2018-05-21T08:39:26.996Z,78560
2018-05-21T08:40:35.623Z,83392
2018-05-21T08:41:43.168Z,76192
2018-05-21T08:42:51.288Z,82880
2018-05-21T08:43:59.636Z,82784
2018-05-21T08:45:07.917Z,86816
2018-05-21T08:46:15.506Z,85792
2018-05-21T08:47:23.587Z,82336
2018-05-21T08:48:32.272Z,90496
2018-05-21T08:49:39.727Z,84320
2018-05-21T08:50:47.926Z,88288
2018-05-21T08:51:57.532Z,92800
2018-05-21T08:53:04.022Z,82944
2018-05-21T08:54:12.087Z,92352
2018-05-21T08:55:20.169Z,88576
2018-05-21T08:56:28.355Z,76736
2018-05-21T08:57:36.349Z,70688
2018-05-21T08:58:44.497Z,84128
2018-05-21T08:59:52.522Z,81472
2018-05-21T09:01:00.614Z,84288
2018-05-21T09:02:08.686Z,79168
2018-05-21T09:03:16.749Z,91456
2018-05-21T09:04:24.882Z,89152
2018-05-21T09:05:32.934Z,88224
2018-05-21T09:06:41.033Z,86144
2018-05-21T09:07:49.108Z,91392
2018-05-21T09:08:57.199Z,96640
2018-05-21T09:10:05.361Z,92864
2018-05-21T09:11:13.365Z,90560
2018-05-21T09:12:21.461Z,84736
2018-05-21T09:13:29.496Z,41824
2018-05-21T09:14:37.610Z,7776
2018-05-21T09:15:45.703Z,7600
2018-05-21T09:16:53.778Z,7600
2018-05-21T09:18:01.865Z,7512
2018-05-21T09:19:09.910Z,7472
2018-05-21T09:20:18.027Z,7368
2018-05-21T09:21:26.111Z,7336
2018-05-21T09:22:34.262Z,7304
2018-05-21T09:23:42.276Z,7232
2018-05-21T09:24:50.355Z,7240
2018-05-21T09:25:58.420Z,7252
2018-05-21T09:27:06.504Z,7264
2018-05-21T09:28:14.577Z,7292
2018-05-21T09:29:22.669Z,7288
2018-05-21T09:30:30.731Z,7252
2018-05-21T09:31:38.805Z,7244
2018-05-21T09:32:46.890Z,7252
2018-05-21T09:33:54.977Z,7232
2018-05-21T09:35:03.047Z,7212
2018-05-21T09:36:11.138Z,7196
2018-05-21T09:37:19.191Z,7176
2018-05-21T09:38:27.284Z,7156
2018-05-21T09:39:35.347Z,7108
2018-05-21T09:40:43.420Z,7072
2018-05-21T09:41:51.510Z,7060
2018-05-21T09:42:59.555Z,7036
2018-05-21T09:44:07.655Z,7000
2018-05-21T09:45:15.735Z,6940
2018-05-21T09:46:23.813Z,6844
2018-05-21T09:47:31.888Z,6708
2018-05-21T09:48:39.990Z,6652
2018-05-21T09:49:48.041Z,6688
2018-05-21T09:50:56.119Z,6808
2018-05-21T09:52:04.187Z,6860
2018-05-21T09:53:12.266Z,6884
2018-05-21T09:54:20.327Z,6900
2018-05-21T09:55:28.416Z,6916
2018-05-21T09:56:36.480Z,6768
2018-05-21T09:57:44.555Z,6572
2018-05-21T09:58:52.617Z,6560
2018-05-21T10:00:00.711Z,6508
2018-05-21T10:01:08.779Z,6564
2018-05-21T10:02:16.864Z,6544
2018-05-21T10:03:24.926Z,6520
2018-05-21T10:04:32.989Z,6552
2018-05-21T10:05:41.081Z,6560
2018-05-21T10:06:49.133Z,6372
2018-05-21T10:07:57.217Z,6348
2018-05-21T10:09:05.292Z,6384
2018-05-21T10:10:13.369Z,6432
2018-05-21T10:11:21.451Z,6472
2018-05-21T10:12:29.481Z,6524
2018-05-21T10:13:37.624Z,6584
2018-05-21T10:14:45.663Z,6580
2018-05-21T10:15:53.733Z,6528
2018-05-21T10:17:01.811Z,6476
2018-05-21T10:18:09.834Z,6416
2018-05-21T10:19:18.033Z,6384
2018-05-21T10:20:26.020Z,6324
2018-05-21T10:21:34.095Z,6324
2018-05-21T10:22:42.170Z,6208
2018-05-21T10:23:50.231Z,6212
2018-05-21T10:24:58.313Z,6200
2018-05-21T10:26:06.408Z,6280
2018-05-21T10:27:14.464Z,6300
2018-05-21T10:28:22.538Z,6208
2018-05-21T10:29:30.611Z,6192
2018-05-21T10:30:38.680Z,6336
2018-05-21T10:31:46.760Z,6696
2018-05-21T10:32:54.837Z,6992
2018-05-21T10:34:02.891Z,7228
2018-05-21T10:35:10.979Z,7472
2018-05-21T10:36:19.045Z,7424
2018-05-21T10:37:27.123Z,7520
2018-05-21T10:38:35.200Z,7676
2018-05-21T10:39:43.271Z,7780
2018-05-21T10:40:51.349Z,7760
2018-05-21T10:41:59.411Z,7700
2018-05-21T10:43:07.487Z,7604
2018-05-21T10:44:15.565Z,7468
2018-05-21T10:45:23.639Z,7284
2018-05-21T10:46:31.710Z,7072
2018-05-21T10:47:39.754Z,6860
2018-05-21T10:48:47.856Z,6708
2018-05-21T10:49:55.919Z,6492
2018-05-21T10:51:03.990Z,6348
2018-05-21T10:52:12.075Z,6244
2018-05-21T10:53:20.125Z,6096
2018-05-21T10:54:28.208Z,5964
2018-05-21T10:55:36.292Z,5820
2018-05-21T10:56:44.374Z,5732
2018-05-21T10:57:52.442Z,5652
2018-05-21T10:59:00.525Z,5584
2018-05-21T11:00:08.592Z,5504
2018-05-21T11:01:16.658Z,5408
2018-05-21T11:02:24.733Z,5312
2018-05-21T11:03:32.798Z,5232
2018-05-21T11:04:40.943Z,5168
2018-05-21T11:05:48.952Z,5128
2018-05-21T11:06:57.030Z,5092
2018-05-21T11:08:05.112Z,5012
2018-05-21T11:09:13.255Z,4928
2018-05-21T11:10:21.251Z,4868
2018-05-21T11:11:29.307Z,4820
2018-05-21T11:12:37.391Z,4792
2018-05-21T11:13:45.496Z,4800
2018-05-21T11:14:53.541Z,4820
2018-05-21T11:16:01.605Z,4816
2018-05-21T11:17:09.654Z,4828
2018-05-21T11:18:17.757Z,4844
2018-05-21T11:19:25.819Z,4840
2018-05-21T11:20:33.893Z,4808
2018-05-21T11:21:41.953Z,4760
2018-05-21T11:22:50.031Z,4728
2018-05-21T11:23:58.125Z,4696
2018-05-21T11:25:06.201Z,4668
2018-05-21T11:26:14.283Z,4648
2018-05-21T11:27:22.349Z,4620
2018-05-21T11:28:30.422Z,4616
2018-05-21T11:29:38.498Z,4612
2018-05-21T11:30:46.564Z,4576
2018-05-21T11:31:54.713Z,4528
2018-05-21T11:33:02.726Z,4492
2018-05-21T11:34:10.790Z,4460
2018-05-21T11:35:18.856Z,4436
2018-05-21T11:36:26.950Z,4404
2018-05-21T11:37:35.013Z,4364
2018-05-21T11:38:43.082Z,4324
2018-05-21T11:39:51.158Z,4284
2018-05-21T11:40:59.243Z,4248
2018-05-21T11:42:07.295Z,4228
2018-05-21T11:43:15.368Z,4224
2018-05-21T11:44:23.451Z,4208
2018-05-21T11:45:31.532Z,4160
2018-05-21T11:46:39.563Z,4096
2018-05-21T11:47:47.664Z,4072
2018-05-21T11:48:55.742Z,4048
2018-05-21T11:50:03.815Z,4048
2018-05-21T11:51:11.884Z,4056
2018-05-21T11:52:19.928Z,4064
2018-05-21T11:53:28.037Z,4060
2018-05-21T11:54:36.104Z,4052
2018-05-21T11:55:44.171Z,4060
2018-05-21T11:56:52.249Z,4072
2018-05-21T11:58:00.316Z,4088
2018-05-21T11:59:08.388Z,4068
2018-05-21T12:00:16.460Z,4044
2018-05-21T12:01:24.520Z,4044
2018-05-21T12:02:32.687Z,4056
2018-05-21T12:03:40.680Z,4092
2018-05-21T12:04:49.259Z,4128
2018-05-21T12:05:56.858Z,4136
2018-05-21T12:07:04.899Z,4132
2018-05-21T12:08:12.986Z,4152
2018-05-21T12:09:21.059Z,4164
2018-05-21T12:10:29.132Z,4180
2018-05-21T12:11:37.192Z,4160
2018-05-21T12:12:45.270Z,4132
2018-05-21T12:13:53.335Z,4100
2018-05-21T12:15:01.425Z,4100
2018-05-21T12:16:09.461Z,4096
2018-05-21T12:17:17.555Z,4100
2018-05-21T12:18:25.625Z,4104
2018-05-21T12:19:33.718Z,4116
2018-05-21T12:20:41.784Z,4136
2018-05-21T12:21:49.826Z,4132
2018-05-21T12:22:57.927Z,4104
2018-05-21T12:24:06.268Z,4092
2018-05-21T12:25:14.072Z,4104
2018-05-21T12:26:22.139Z,4112
2018-05-21T12:27:30.200Z,4116
2018-05-21T12:28:38.327Z,4108
2018-05-21T12:29:46.362Z,4100
2018-05-21T12:30:54.441Z,4104
2018-05-21T12:32:02.504Z,4080
2018-05-21T12:33:10.586Z,4060
2018-05-21T12:34:18.650Z,4040
2018-05-21T12:35:26.725Z,3996
2018-05-21T12:36:34.791Z,3956
2018-05-21T12:37:42.885Z,3932
2018-05-21T12:38:50.945Z,3900
2018-05-21T12:39:59.009Z,3880
2018-05-21T12:41:07.080Z,3864
2018-05-21T12:42:15.173Z,3848
2018-05-21T12:43:23.218Z,3840
2018-05-21T12:44:31.311Z,3860
2018-05-21T12:45:39.356Z,3880
2018-05-21T12:46:47.518Z,3900
2018-05-21T12:47:55.546Z,3920
2018-05-21T12:49:03.597Z,3948
2018-05-21T12:50:11.670Z,3956
2018-05-21T12:51:19.716Z,3948
2018-05-21T12:52:27.831Z,3956
2018-05-21T12:53:35.897Z,3960
2018-05-21T12:54:44.020Z,3952
2018-05-21T12:55:52.045Z,3920
2018-05-21T12:57:00.094Z,3888
2018-05-21T12:58:08.194Z,3856
2018-05-21T12:59:16.281Z,3852
2018-05-21T13:00:24.337Z,3876
2018-05-21T13:01:32.452Z,3868
2018-05-21T13:02:40.465Z,3872
2018-05-21T13:03:48.537Z,3868
2018-05-21T13:04:56.616Z,3856
2018-05-21T13:06:04.695Z,3852
2018-05-21T13:07:12.791Z,3848
2018-05-21T13:08:20.815Z,3844
2018-05-21T13:09:28.891Z,3844
2018-05-21T13:10:36.992Z,3864
2018-05-21T13:11:45.094Z,3892
2018-05-21T13:12:53.115Z,3892
2018-05-21T13:14:01.206Z,3876
2018-05-21T13:15:09.268Z,3884
2018-05-21T13:16:17.340Z,3876
2018-05-21T13:17:25.418Z,3872
2018-05-21T13:18:33.490Z,3880
2018-05-21T13:19:41.566Z,3876
2018-05-21T13:20:49.607Z,3872
2018-05-21T13:21:57.713Z,3880
2018-05-21T13:23:05.785Z,3880
2018-05-21T13:24:13.863Z,3880
2018-05-21T13:25:21.918Z,3876
2018-05-21T13:26:29.971Z,3876
2018-05-21T13:27:38.049Z,3888
2018-05-21T13:28:46.140Z,3896
2018-05-21T13:29:54.201Z,3896
2018-05-21T13:31:02.285Z,3916
2018-05-21T13:32:10.339Z,3924
2018-05-21T13:33:18.417Z,3936
2018-05-21T13:34:26.499Z,3948
2018-05-21T13:35:34.575Z,3936
2018-05-21T13:36:42.641Z,3952
2018-05-21T13:37:50.717Z,3972
2018-05-21T13:38:58.791Z,4008
2018-05-21T13:40:06.853Z,4040
2018-05-21T13:41:14.937Z,4076
2018-05-21T13:42:23.018Z,4080
2018-05-21T13:43:31.081Z,4072
2018-05-21T13:44:39.147Z,4080
2018-05-21T13:45:47.242Z,4124
2018-05-21T13:46:55.299Z,4176
2018-05-21T13:48:03.361Z,4212
2018-05-21T13:49:11.453Z,4292
2018-05-21T13:50:19.483Z,4368
2018-05-21T13:51:27.590Z,4532
2018-05-21T13:52:35.743Z,4660
2018-05-21T13:53:43.743Z,4780
2018-05-21T13:54:51.807Z,4840
2018-05-21T13:55:59.854Z,4972
2018-05-21T13:57:07.956Z,5212
2018-05-21T13:58:16.018Z,5536
2018-05-21T13:59:24.094Z,5744
2018-05-21T14:00:32.180Z,5816
2018-05-21T14:01:40.237Z,5920
2018-05-21T14:02:48.331Z,6096
2018-05-21T14:03:56.400Z,6356
2018-05-21T14:05:04.471Z,6652
2018-05-21T14:06:12.539Z,6924
2018-05-21T14:07:20.614Z,7152
2018-05-21T14:08:28.699Z,7256
2018-05-21T14:09:36.732Z,7284
2018-05-21T14:10:44.842Z,7440
2018-05-21T14:11:52.922Z,7644
2018-05-21T14:13:00.980Z,7876
2018-05-21T14:14:09.044Z,8492
2018-05-21T14:15:17.125Z,8828
2018-05-21T14:16:25.213Z,9192
2018-05-21T14:17:33.285Z,9092
2018-05-21T14:18:41.352Z,9192
2018-05-21T14:19:49.411Z,9148
2018-05-21T14:20:57.497Z,8988
2018-05-21T14:22:05.569Z,8896
2018-05-21T14:23:13.648Z,9024
2018-05-21T14:24:21.715Z,8088
2018-05-21T14:25:29.853Z,7552
2018-05-21T14:26:37.850Z,7484
2018-05-21T14:27:45.939Z,7164
2018-05-21T14:28:54.156Z,6756
2018-05-21T14:30:02.722Z,6564
2018-05-21T14:31:10.151Z,6584
2018-05-21T14:32:18.243Z,7004
2018-05-21T14:33:26.313Z,6536
2018-05-21T14:34:34.378Z,6024
2018-05-21T14:35:42.437Z,5756
2018-05-21T14:36:50.539Z,5968
2018-05-21T14:37:58.614Z,6524
2018-05-21T14:39:06.676Z,7032
2018-05-21T14:40:14.775Z,7444
2018-05-21T14:41:22.833Z,8088
2018-05-21T14:42:30.898Z,8732
2018-05-21T14:43:38.975Z,9216
2018-05-21T14:44:47.055Z,9412
2018-05-21T14:45:55.122Z,9876
2018-05-21T14:47:03.192Z,9888
2018-05-21T14:48:11.264Z,10744
2018-05-21T14:49:19.321Z,11112
2018-05-21T14:50:27.416Z,10448
2018-05-21T14:51:35.482Z,10068
2018-05-21T14:52:43.565Z,9940
2018-05-21T14:53:51.647Z,9636
2018-05-21T14:54:59.719Z,9356
2018-05-21T14:56:07.789Z,8620
2018-05-21T14:57:15.861Z,7464
2018-05-21T14:58:23.929Z,6468
2018-05-21T14:59:32.005Z,5408
2018-05-21T15:00:40.049Z,4824
2018-05-21T15:01:48.159Z,4476
2018-05-21T15:02:56.222Z,4116
2018-05-21T15:04:04.363Z,3908
2018-05-21T15:05:12.369Z,3868
2018-05-21T15:06:20.443Z,4092
2018-05-21T15:07:28.524Z,4208
2018-05-21T15:08:36.590Z,4088
2018-05-21T15:09:44.659Z,3924
2018-05-21T15:10:52.728Z,3764
2018-05-21T15:12:00.806Z,3684
2018-05-21T15:13:08.891Z,3664
2018-05-21T15:14:16.957Z,3968
2018-05-21T15:15:25.005Z,4260
2018-05-21T15:16:33.108Z,4372
2018-05-21T15:17:41.165Z,4340
2018-05-21T15:18:49.218Z,4048
2018-05-21T15:19:57.312Z,4064
2018-05-21T15:21:05.391Z,4096
2018-05-21T15:22:13.469Z,4056
2018-05-21T15:23:21.546Z,4000